sensor_id;sensor_type;location;lat;lon;timestamp;temperature;humidity
76211;DHT22;65003;49.518;11.280;2022-11-15T00:00:14;8.10;78.70
76211;DHT22;65003;49.518;11.280;2022-11-15T00:02:40;8.10;78.90
76211;DHT22;65003;49.518;11.280;2022-11-15T00:05:07;8.10;78.80
76211;DHT22;65003;49.518;11.280;2022-11-15T00:07:34;8.00;78.90
76211;DHT22;65003;49.518;11.280;2022-11-15T00:10:00;8.00;79.10
76211;DHT22;65003;49.518;11.280;2022-11-15T00:12:27;8.00;79.20
76211;DHT22;65003;49.518;11.280;2022-11-15T00:14:53;8.00;79.30
76211;DHT22;65003;49.518;11.280;2022-11-15T00:17:20;7.90;79.40
76211;DHT22;65003;49.518;11.280;2022-11-15T00:19:46;7.90;79.60
76211;DHT22;65003;49.518;11.280;2022-11-15T00:22:13;8.00;79.40
76211;DHT22;65003;49.518;11.280;2022-11-15T00:24:40;8.00;79.20
76211;DHT22;65003;49.518;11.280;2022-11-15T00:27:06;8.10;78.80
76211;DHT22;65003;49.518;11.280;2022-11-15T00:29:33;8.10;78.80
76211;DHT22;65003;49.518;11.280;2022-11-15T00:31:59;8.00;78.90
76211;DHT22;65003;49.518;11.280;2022-11-15T00:34:26;8.00;78.90
76211;DHT22;65003;49.518;11.280;2022-11-15T00:36:52;8.00;78.80
76211;DHT22;65003;49.518;11.280;2022-11-15T00:39:19;8.00;78.70
76211;DHT22;65003;49.518;11.280;2022-11-15T00:41:46;8.00;78.80
76211;DHT22;65003;49.518;11.280;2022-11-15T00:44:12;8.10;78.80
76211;DHT22;65003;49.518;11.280;2022-11-15T00:46:39;8.20;78.40
76211;DHT22;65003;49.518;11.280;2022-11-15T00:49:05;8.30;77.90
76211;DHT22;65003;49.518;11.280;2022-11-15T00:51:32;8.40;77.50
76211;DHT22;65003;49.518;11.280;2022-11-15T00:53:59;8.40;77.10
76211;DHT22;65003;49.518;11.280;2022-11-15T00:56:25;8.40;77.20
76211;DHT22;65003;49.518;11.280;2022-11-15T00:58:52;8.40;77.00
76211;DHT22;65003;49.518;11.280;2022-11-15T01:01:18;8.40;77.20
76211;DHT22;65003;49.518;11.280;2022-11-15T01:03:45;8.40;77.20
76211;DHT22;65003;49.518;11.280;2022-11-15T01:06:11;8.50;77.20
76211;DHT22;65003;49.518;11.280;2022-11-15T01:08:39;8.50;77.20
76211;DHT22;65003;49.518;11.280;2022-11-15T01:11:08;8.50;77.10
76211;DHT22;65003;49.518;11.280;2022-11-15T01:13:34;8.50;77.10
76211;DHT22;65003;49.518;11.280;2022-11-15T01:16:07;8.40;77.20
76211;DHT22;65003;49.518;11.280;2022-11-15T01:18:34;8.40;77.30
76211;DHT22;65003;49.518;11.280;2022-11-15T01:21:04;8.30;77.20
76211;DHT22;65003;49.518;11.280;2022-11-15T01:23:27;8.30;77.60
76211;DHT22;65003;49.518;11.280;2022-11-15T01:25:58;8.30;77.60
76211;DHT22;65003;49.518;11.280;2022-11-15T01:28:20;8.20;77.70
76211;DHT22;65003;49.518;11.280;2022-11-15T01:30:47;8.20;77.60
76211;DHT22;65003;49.518;11.280;2022-11-15T01:33:13;8.20;77.70
76211;DHT22;65003;49.518;11.280;2022-11-15T01:35:40;8.20;77.50
76211;DHT22;65003;49.518;11.280;2022-11-15T01:38:06;8.20;77.50
76211;DHT22;65003;49.518;11.280;2022-11-15T01:40:33;8.20;77.30
76211;DHT22;65003;49.518;11.280;2022-11-15T01:43:18;8.30;77.20
76211;DHT22;65003;49.518;11.280;2022-11-15T01:45:26;8.30;76.60
76211;DHT22;65003;49.518;11.280;2022-11-15T01:47:53;8.30;76.50
76211;DHT22;65003;49.518;11.280;2022-11-15T01:50:22;8.40;76.40
76211;DHT22;65003;49.518;11.280;2022-11-15T01:52:46;8.40;76.40
76211;DHT22;65003;49.518;11.280;2022-11-15T01:55:15;8.40;76.00
76211;DHT22;65003;49.518;11.280;2022-11-15T01:57:40;8.50;75.40
76211;DHT22;65003;49.518;11.280;2022-11-15T02:00:08;8.40;75.30
76211;DHT22;65003;49.518;11.280;2022-11-15T02:02:34;8.30;76.10
76211;DHT22;65003;49.518;11.280;2022-11-15T02:05:01;8.20;76.90
76211;DHT22;65003;49.518;11.280;2022-11-15T02:07:28;8.20;77.00
76211;DHT22;65003;49.518;11.280;2022-11-15T02:09:54;8.10;77.10
76211;DHT22;65003;49.518;11.280;2022-11-15T02:12:21;8.10;77.20
76211;DHT22;65003;49.518;11.280;2022-11-15T02:14:48;8.10;76.90
76211;DHT22;65003;49.518;11.280;2022-11-15T02:17:25;8.20;76.90
76211;DHT22;65003;49.518;11.280;2022-11-15T02:20:05;8.10;76.30
76211;DHT22;65003;49.518;11.280;2022-11-15T02:22:30;8.20;76.10
76211;DHT22;65003;49.518;11.280;2022-11-15T02:27:59;8.20;75.90
76211;DHT22;65003;49.518;11.280;2022-11-15T02:30:34;8.10;75.70
76211;DHT22;65003;49.518;11.280;2022-11-15T02:33:20;8.20;75.40
76211;DHT22;65003;49.518;11.280;2022-11-15T02:35:46;8.20;75.20
76211;DHT22;65003;49.518;11.280;2022-11-15T02:38:17;8.20;75.40
76211;DHT22;65003;49.518;11.280;2022-11-15T02:40:52;8.10;75.30
76211;DHT22;65003;49.518;11.280;2022-11-15T02:43:29;8.10;75.70
76211;DHT22;65003;49.518;11.280;2022-11-15T02:48:42;8.10;75.80
76211;DHT22;65003;49.518;11.280;2022-11-15T02:51:08;8.00;76.60
76211;DHT22;65003;49.518;11.280;2022-11-15T02:53:35;7.80;77.60
76211;DHT22;65003;49.518;11.280;2022-11-15T02:56:01;7.60;78.50
76211;DHT22;65003;49.518;11.280;2022-11-15T02:58:35;7.50;79.20
76211;DHT22;65003;49.518;11.280;2022-11-15T03:00:59;7.50;79.20
76211;DHT22;65003;49.518;11.280;2022-11-15T03:08:53;7.30;79.70
76211;DHT22;65003;49.518;11.280;2022-11-15T03:11:17;7.20;79.90
76211;DHT22;65003;49.518;11.280;2022-11-15T03:13:48;7.10;80.50
76211;DHT22;65003;49.518;11.280;2022-11-15T03:16:20;6.90;81.10
76211;DHT22;65003;49.518;11.280;2022-11-15T03:18:47;6.80;81.70
76211;DHT22;65003;49.518;11.280;2022-11-15T03:21:12;6.80;81.90
76211;DHT22;65003;49.518;11.280;2022-11-15T03:23:39;6.80;81.60
76211;DHT22;65003;49.518;11.280;2022-11-15T03:26:07;6.80;81.50
76211;DHT22;65003;49.518;11.280;2022-11-15T03:28:36;6.70;81.70
76211;DHT22;65003;49.518;11.280;2022-11-15T03:31:01;6.10;81.50
76211;DHT22;65003;49.518;11.280;2022-11-15T03:33:27;6.60;82.10
76211;DHT22;65003;49.518;11.280;2022-11-15T03:35:54;6.60;82.20
76211;DHT22;65003;49.518;11.280;2022-11-15T03:38:24;6.60;82.10
76211;DHT22;65003;49.518;11.280;2022-11-15T03:40:59;6.70;81.90
76211;DHT22;65003;49.518;11.280;2022-11-15T03:43:34;6.60;82.00
76211;DHT22;65003;49.518;11.280;2022-11-15T03:46:01;6.50;82.40
76211;DHT22;65003;49.518;11.280;2022-11-15T03:48:26;6.60;82.30
76211;DHT22;65003;49.518;11.280;2022-11-15T03:50:52;6.60;82.00
76211;DHT22;65003;49.518;11.280;2022-11-15T03:53:19;6.60;82.10
76211;DHT22;65003;49.518;11.280;2022-11-15T03:55:45;6.50;82.50
76211;DHT22;65003;49.518;11.280;2022-11-15T03:58:12;6.40;82.80
76211;DHT22;65003;49.518;11.280;2022-11-15T04:00:38;6.40;82.60
76211;DHT22;65003;49.518;11.280;2022-11-15T04:03:05;6.40;82.70
76211;DHT22;65003;49.518;11.280;2022-11-15T04:05:31;6.40;82.70
76211;DHT22;65003;49.518;11.280;2022-11-15T04:07:58;6.40;82.60
76211;DHT22;65003;49.518;11.280;2022-11-15T04:10:25;6.40;82.60
76211;DHT22;65003;49.518;11.280;2022-11-15T04:12:51;5.90;82.60
76211;DHT22;65003;49.518;11.280;2022-11-15T04:15:20;6.20;83.20
76211;DHT22;65003;49.518;11.280;2022-11-15T04:17:46;6.30;83.30
76211;DHT22;65003;49.518;11.280;2022-11-15T04:20:16;6.20;83.30
76211;DHT22;65003;49.518;11.280;2022-11-15T04:22:47;6.20;83.70
76211;DHT22;65003;49.518;11.280;2022-11-15T04:25:19;6.10;83.60
76211;DHT22;65003;49.518;11.280;2022-11-15T04:27:46;6.10;83.90
76211;DHT22;65003;49.518;11.280;2022-11-15T04:30:12;6.00;84.10
76211;DHT22;65003;49.518;11.280;2022-11-15T04:32:39;6.00;84.20
76211;DHT22;65003;49.518;11.280;2022-11-15T04:35:06;6.00;84.10
76211;DHT22;65003;49.518;11.280;2022-11-15T04:37:32;6.10;83.60
76211;DHT22;65003;49.518;11.280;2022-11-15T04:39:59;6.20;83.20
76211;DHT22;65003;49.518;11.280;2022-11-15T04:42:26;6.40;82.50
76211;DHT22;65003;49.518;11.280;2022-11-15T04:44:52;6.50;81.80
76211;DHT22;65003;49.518;11.280;2022-11-15T04:47:19;6.70;81.00
76211;DHT22;65003;49.518;11.280;2022-11-15T04:49:45;6.80;80.20
76211;DHT22;65003;49.518;11.280;2022-11-15T04:52:12;6.80;79.90
76211;DHT22;65003;49.518;11.280;2022-11-15T04:54:38;6.80;79.70
76211;DHT22;65003;49.518;11.280;2022-11-15T04:57:05;6.80;79.40
76211;DHT22;65003;49.518;11.280;2022-11-15T04:59:32;6.90;79.30
76211;DHT22;65003;49.518;11.280;2022-11-15T05:01:58;6.90;79.00
76211;DHT22;65003;49.518;11.280;2022-11-15T05:04:25;6.90;78.90
76211;DHT22;65003;49.518;11.280;2022-11-15T05:06:51;6.90;78.90
76211;DHT22;65003;49.518;11.280;2022-11-15T05:09:18;6.80;79.00
76211;DHT22;65003;49.518;11.280;2022-11-15T05:11:44;6.70;79.90
76211;DHT22;65003;49.518;11.280;2022-11-15T05:14:11;6.60;80.20
76211;DHT22;65003;49.518;11.280;2022-11-15T05:16:38;6.60;80.30
76211;DHT22;65003;49.518;11.280;2022-11-15T05:19:04;6.60;80.40
76211;DHT22;65003;49.518;11.280;2022-11-15T05:21:31;6.60;79.90
76211;DHT22;65003;49.518;11.280;2022-11-15T05:23:58;6.60;80.00
76211;DHT22;65003;49.518;11.280;2022-11-15T05:26:24;6.70;78.90
76211;DHT22;65003;49.518;11.280;2022-11-15T05:28:54;6.70;78.60
76211;DHT22;65003;49.518;11.280;2022-11-15T05:31:20;6.70;78.50
76211;DHT22;65003;49.518;11.280;2022-11-15T05:33:46;6.70;78.50
76211;DHT22;65003;49.518;11.280;2022-11-15T05:36:19;6.70;78.40
76211;DHT22;65003;49.518;11.280;2022-11-15T05:38:43;6.70;77.30
76211;DHT22;65003;49.518;11.280;2022-11-15T05:41:10;6.70;77.30
76211;DHT22;65003;49.518;11.280;2022-11-15T05:43:36;6.60;78.00
76211;DHT22;65003;49.518;11.280;2022-11-15T05:46:03;6.50;78.90
76211;DHT22;65003;49.518;11.280;2022-11-15T05:48:30;6.30;79.40
76211;DHT22;65003;49.518;11.280;2022-11-15T05:50:56;6.20;80.10
76211;DHT22;65003;49.518;11.280;2022-11-15T05:53:23;5.90;81.00
76211;DHT22;65003;49.518;11.280;2022-11-15T05:55:49;5.80;81.50
76211;DHT22;65003;49.518;11.280;2022-11-15T05:58:16;5.80;81.60
76211;DHT22;65003;49.518;11.280;2022-11-15T06:00:42;5.80;81.50
76211;DHT22;65003;49.518;11.280;2022-11-15T06:03:09;5.80;82.70
76211;DHT22;65003;49.518;11.280;2022-11-15T06:05:36;5.70;82.90
76211;DHT22;65003;49.518;11.280;2022-11-15T06:08:02;5.60;83.70
76211;DHT22;65003;49.518;11.280;2022-11-15T06:10:29;5.50;84.00
76211;DHT22;65003;49.518;11.280;2022-11-15T06:12:57;5.40;84.30
76211;DHT22;65003;49.518;11.280;2022-11-15T06:15:23;5.30;85.10
76211;DHT22;65003;49.518;11.280;2022-11-15T06:17:50;5.30;85.10
76211;DHT22;65003;49.518;11.280;2022-11-15T06:20:16;5.40;84.80
76211;DHT22;65003;49.518;11.280;2022-11-15T06:22:43;5.40;84.40
76211;DHT22;65003;49.518;11.280;2022-11-15T06:25:09;5.50;84.20
76211;DHT22;65003;49.518;11.280;2022-11-15T06:27:36;5.50;84.20
76211;DHT22;65003;49.518;11.280;2022-11-15T06:30:03;5.50;83.80
76211;DHT22;65003;49.518;11.280;2022-11-15T06:32:30;5.50;83.80
76211;DHT22;65003;49.518;11.280;2022-11-15T06:34:56;5.50;83.80
76211;DHT22;65003;49.518;11.280;2022-11-15T06:37:23;5.40;84.00
76211;DHT22;65003;49.518;11.280;2022-11-15T06:39:49;5.50;83.90
76211;DHT22;65003;49.518;11.280;2022-11-15T06:42:16;5.50;83.30
76211;DHT22;65003;49.518;11.280;2022-11-15T06:44:42;5.70;82.80
76211;DHT22;65003;49.518;11.280;2022-11-15T06:47:09;5.70;82.30
76211;DHT22;65003;49.518;11.280;2022-11-15T06:49:36;5.80;82.30
76211;DHT22;65003;49.518;11.280;2022-11-15T06:52:02;5.80;82.30
76211;DHT22;65003;49.518;11.280;2022-11-15T06:54:29;5.70;82.20
76211;DHT22;65003;49.518;11.280;2022-11-15T06:56:55;5.80;82.10
76211;DHT22;65003;49.518;11.280;2022-11-15T06:59:22;5.80;81.90
76211;DHT22;65003;49.518;11.280;2022-11-15T07:01:49;5.80;82.10
76211;DHT22;65003;49.518;11.280;2022-11-15T07:04:15;5.80;82.00
76211;DHT22;65003;49.518;11.280;2022-11-15T07:06:42;5.30;81.40
76211;DHT22;65003;49.518;11.280;2022-11-15T07:09:08;5.90;81.70
76211;DHT22;65003;49.518;11.280;2022-11-15T07:11:35;5.80;81.80
76211;DHT22;65003;49.518;11.280;2022-11-15T07:14:02;5.80;82.20
76211;DHT22;65003;49.518;11.280;2022-11-15T07:16:28;5.70;82.40
76211;DHT22;65003;49.518;11.280;2022-11-15T07:18:55;5.70;82.50
76211;DHT22;65003;49.518;11.280;2022-11-15T07:21:21;5.80;82.70
76211;DHT22;65003;49.518;11.280;2022-11-15T07:23:48;5.80;82.70
76211;DHT22;65003;49.518;11.280;2022-11-15T07:26:15;5.90;82.60
76211;DHT22;65003;49.518;11.280;2022-11-15T07:28:42;5.90;82.30
76211;DHT22;65003;49.518;11.280;2022-11-15T07:31:09;6.00;82.00
76211;DHT22;65003;49.518;11.280;2022-11-15T07:33:36;6.00;82.40
76211;DHT22;65003;49.518;11.280;2022-11-15T07:36:03;6.00;82.30
76211;DHT22;65003;49.518;11.280;2022-11-15T07:38:29;6.00;82.30
76211;DHT22;65003;49.518;11.280;2022-11-15T07:40:57;6.10;82.30
76211;DHT22;65003;49.518;11.280;2022-11-15T07:43:23;6.10;82.10
76211;DHT22;65003;49.518;11.280;2022-11-15T07:45:50;6.20;82.20
76211;DHT22;65003;49.518;11.280;2022-11-15T07:48:16;6.30;81.70
76211;DHT22;65003;49.518;11.280;2022-11-15T07:50:43;6.40;81.50
76211;DHT22;65003;49.518;11.280;2022-11-15T07:53:10;6.50;81.30
76211;DHT22;65003;49.518;11.280;2022-11-15T07:55:36;6.60;81.30
76211;DHT22;65003;49.518;11.280;2022-11-15T07:58:04;6.70;80.80
76211;DHT22;65003;49.518;11.280;2022-11-15T08:00:30;6.80;80.70
76211;DHT22;65003;49.518;11.280;2022-11-15T08:03:09;6.90;80.70
76211;DHT22;65003;49.518;11.280;2022-11-15T08:05:34;7.00;80.20
76211;DHT22;65003;49.518;11.280;2022-11-15T08:08:00;7.10;79.90
76211;DHT22;65003;49.518;11.280;2022-11-15T08:10:27;7.20;79.70
76211;DHT22;65003;49.518;11.280;2022-11-15T08:13:01;7.20;79.40
76211;DHT22;65003;49.518;11.280;2022-11-15T08:15:27;7.30;79.30
76211;DHT22;65003;49.518;11.280;2022-11-15T08:17:56;7.30;79.50
76211;DHT22;65003;49.518;11.280;2022-11-15T08:20:23;7.40;79.40
76211;DHT22;65003;49.518;11.280;2022-11-15T08:22:49;7.40;79.10
76211;DHT22;65003;49.518;11.280;2022-11-15T08:25:16;7.50;79.10
76211;DHT22;65003;49.518;11.280;2022-11-15T08:27:43;7.50;79.00
76211;DHT22;65003;49.518;11.280;2022-11-15T08:30:10;7.60;78.50
76211;DHT22;65003;49.518;11.280;2022-11-15T08:32:36;7.80;78.20
76211;DHT22;65003;49.518;11.280;2022-11-15T08:35:03;8.00;77.90
76211;DHT22;65003;49.518;11.280;2022-11-15T08:37:30;8.10;77.20
76211;DHT22;65003;49.518;11.280;2022-11-15T08:39:57;8.20;76.90
76211;DHT22;65003;49.518;11.280;2022-11-15T08:42:23;8.50;76.10
76211;DHT22;65003;49.518;11.280;2022-11-15T08:44:50;8.70;74.70
76211;DHT22;65003;49.518;11.280;2022-11-15T08:47:16;8.90;74.30
76211;DHT22;65003;49.518;11.280;2022-11-15T08:49:43;9.20;72.90
76211;DHT22;65003;49.518;11.280;2022-11-15T08:52:10;9.50;72.00
76211;DHT22;65003;49.518;11.280;2022-11-15T08:54:36;9.80;71.10
76211;DHT22;65003;49.518;11.280;2022-11-15T08:57:03;10.10;69.60
76211;DHT22;65003;49.518;11.280;2022-11-15T08:59:29;10.40;68.70
76211;DHT22;65003;49.518;11.280;2022-11-15T09:01:56;10.80;67.90
76211;DHT22;65003;49.518;11.280;2022-11-15T09:04:22;11.30;66.60
76211;DHT22;65003;49.518;11.280;2022-11-15T09:06:49;11.90;64.30
76211;DHT22;65003;49.518;11.280;2022-11-15T09:09:16;12.50;61.90
76211;DHT22;65003;49.518;11.280;2022-11-15T09:11:42;13.10;59.90
76211;DHT22;65003;49.518;11.280;2022-11-15T09:14:10;13.50;58.10
76211;DHT22;65003;49.518;11.280;2022-11-15T09:16:35;13.80;57.50
76211;DHT22;65003;49.518;11.280;2022-11-15T09:19:02;14.10;56.70
76211;DHT22;65003;49.518;11.280;2022-11-15T09:21:29;14.40;56.60
76211;DHT22;65003;49.518;11.280;2022-11-15T09:23:55;14.30;55.60
76211;DHT22;65003;49.518;11.280;2022-11-15T09:26:22;14.80;54.90
76211;DHT22;65003;49.518;11.280;2022-11-15T09:28:48;15.40;53.10
76211;DHT22;65003;49.518;11.280;2022-11-15T09:31:15;16.10;52.00
76211;DHT22;65003;49.518;11.280;2022-11-15T09:33:44;16.90;49.80
76211;DHT22;65003;49.518;11.280;2022-11-15T09:36:11;17.40;48.20
76211;DHT22;65003;49.518;11.280;2022-11-15T09:38:37;17.80;47.90
76211;DHT22;65003;49.518;11.280;2022-11-15T09:44:36;18.70;45.90
76211;DHT22;65003;49.518;11.280;2022-11-15T09:49:15;19.30;43.90
76211;DHT22;65003;49.518;11.280;2022-11-15T09:51:43;19.20;44.00
76211;DHT22;65003;49.518;11.280;2022-11-15T09:54:31;19.10;43.90
76211;DHT22;65003;49.518;11.280;2022-11-15T09:57:02;19.30;44.40
76211;DHT22;65003;49.518;11.280;2022-11-15T09:59:31;19.60;43.10
76211;DHT22;65003;49.518;11.280;2022-11-15T10:04:37;20.00;42.30
76211;DHT22;65003;49.518;11.280;2022-11-15T10:07:39;20.00;42.40
76211;DHT22;65003;49.518;11.280;2022-11-15T10:09:51;20.20;42.40
76211;DHT22;65003;49.518;11.280;2022-11-15T10:12:14;20.20;41.80
76211;DHT22;65003;49.518;11.280;2022-11-15T10:14:40;20.30;41.80
76211;DHT22;65003;49.518;11.280;2022-11-15T10:17:14;20.10;42.20
76211;DHT22;65003;49.518;11.280;2022-11-15T10:20:02;20.00;42.70
76211;DHT22;65003;49.518;11.280;2022-11-15T10:22:28;20.10;42.40
76211;DHT22;65003;49.518;11.280;2022-11-15T10:25:09;20.00;42.40
76211;DHT22;65003;49.518;11.280;2022-11-15T10:27:27;19.70;43.00
76211;DHT22;65003;49.518;11.280;2022-11-15T10:29:54;19.70;43.30
76211;DHT22;65003;49.518;11.280;2022-11-15T10:32:20;19.80;43.40
76211;DHT22;65003;49.518;11.280;2022-11-15T10:34:48;20.00;43.40
76211;DHT22;65003;49.518;11.280;2022-11-15T10:37:14;19.70;43.30
76211;DHT22;65003;49.518;11.280;2022-11-15T10:39:40;19.80;43.20
76211;DHT22;65003;49.518;11.280;2022-11-15T10:42:17;19.80;43.30
76211;DHT22;65003;49.518;11.280;2022-11-15T10:44:43;19.80;43.80
76211;DHT22;65003;49.518;11.280;2022-11-15T10:47:21;19.80;44.00
76211;DHT22;65003;49.518;11.280;2022-11-15T10:49:55;20.00;43.30
76211;DHT22;65003;49.518;11.280;2022-11-15T10:52:21;19.80;43.30
76211;DHT22;65003;49.518;11.280;2022-11-15T10:54:48;19.90;43.30
76211;DHT22;65003;49.518;11.280;2022-11-15T10:57:16;19.90;43.20
76211;DHT22;65003;49.518;11.280;2022-11-15T10:59:46;20.10;43.50
76211;DHT22;65003;49.518;11.280;2022-11-15T11:02:26;20.10;42.70
76211;DHT22;65003;49.518;11.280;2022-11-15T11:04:50;20.20;42.50
76211;DHT22;65003;49.518;11.280;2022-11-15T11:07:22;20.30;42.50
76211;DHT22;65003;49.518;11.280;2022-11-15T11:09:48;20.50;42.20
76211;DHT22;65003;49.518;11.280;2022-11-15T11:12:14;20.40;42.00
76211;DHT22;65003;49.518;11.280;2022-11-15T11:14:40;20.40;42.20
76211;DHT22;65003;49.518;11.280;2022-11-15T11:17:14;20.60;41.90
76211;DHT22;65003;49.518;11.280;2022-11-15T11:19:56;20.80;41.40
76211;DHT22;65003;49.518;11.280;2022-11-15T11:22:23;20.80;41.40
76211;DHT22;65003;49.518;11.280;2022-11-15T11:25:27;20.70;41.70
76211;DHT22;65003;49.518;11.280;2022-11-15T11:27:55;20.70;42.60
76211;DHT22;65003;49.518;11.280;2022-11-15T11:30:19;20.70;42.10
76211;DHT22;65003;49.518;11.280;2022-11-15T11:33:07;20.50;42.20
76211;DHT22;65003;49.518;11.280;2022-11-15T11:35:39;20.50;42.50
76211;DHT22;65003;49.518;11.280;2022-11-15T11:38:15;20.60;42.90
76211;DHT22;65003;49.518;11.280;2022-11-15T11:40:45;20.80;42.20
76211;DHT22;65003;49.518;11.280;2022-11-15T11:43:41;20.90;42.10
76211;DHT22;65003;49.518;11.280;2022-11-15T11:46:14;20.90;41.90
76211;DHT22;65003;49.518;11.280;2022-11-15T11:48:42;20.80;41.80
76211;DHT22;65003;49.518;11.280;2022-11-15T11:51:14;20.80;41.40
76211;DHT22;65003;49.518;11.280;2022-11-15T11:53:53;20.70;41.80
76211;DHT22;65003;49.518;11.280;2022-11-15T11:56:22;20.60;42.10
76211;DHT22;65003;49.518;11.280;2022-11-15T11:58:46;20.60;41.90
76211;DHT22;65003;49.518;11.280;2022-11-15T12:03:59;20.70;41.30
76211;DHT22;65003;49.518;11.280;2022-11-15T12:06:32;20.60;41.60
76211;DHT22;65003;49.518;11.280;2022-11-15T12:09:07;20.50;42.10
76211;DHT22;65003;49.518;11.280;2022-11-15T12:12:56;20.40;42.50
76211;DHT22;65003;49.518;11.280;2022-11-15T12:14:34;20.40;42.90
76211;DHT22;65003;49.518;11.280;2022-11-15T12:16:59;20.30;43.20
76211;DHT22;65003;49.518;11.280;2022-11-15T12:19:25;20.30;43.10
76211;DHT22;65003;49.518;11.280;2022-11-15T12:22:03;20.30;43.20
76211;DHT22;65003;49.518;11.280;2022-11-15T12:24:37;20.30;43.20
76211;DHT22;65003;49.518;11.280;2022-11-15T12:27:09;20.30;43.10
76211;DHT22;65003;49.518;11.280;2022-11-15T12:29:35;20.40;43.80
76211;DHT22;65003;49.518;11.280;2022-11-15T12:32:00;20.40;42.50
76211;DHT22;65003;49.518;11.280;2022-11-15T12:34:35;20.40;42.40
76211;DHT22;65003;49.518;11.280;2022-11-15T12:36:57;20.20;42.50
76211;DHT22;65003;49.518;11.280;2022-11-15T12:40:03;19.90;43.50
76211;DHT22;65003;49.518;11.280;2022-11-15T12:42:35;19.90;43.40
76211;DHT22;65003;49.518;11.280;2022-11-15T12:45:00;20.00;43.80
76211;DHT22;65003;49.518;11.280;2022-11-15T12:47:27;20.00;43.30
76211;DHT22;65003;49.518;11.280;2022-11-15T12:49:53;20.00;43.00
76211;DHT22;65003;49.518;11.280;2022-11-15T12:52:20;19.80;43.30
76211;DHT22;65003;49.518;11.280;2022-11-15T12:54:50;19.80;43.40
76211;DHT22;65003;49.518;11.280;2022-11-15T12:57:27;19.70;43.90
76211;DHT22;65003;49.518;11.280;2022-11-15T12:59:56;19.60;44.20
76211;DHT22;65003;49.518;11.280;2022-11-15T13:02:25;19.50;43.90
76211;DHT22;65003;49.518;11.280;2022-11-15T13:04:52;19.40;44.20
76211;DHT22;65003;49.518;11.280;2022-11-15T13:07:58;19.20;45.00
76211;DHT22;65003;49.518;11.280;2022-11-15T13:10:30;19.10;45.90
76211;DHT22;65003;49.518;11.280;2022-11-15T13:13:01;19.10;45.30
76211;DHT22;65003;49.518;11.280;2022-11-15T13:15:36;19.00;45.70
76211;DHT22;65003;49.518;11.280;2022-11-15T13:18:30;18.90;45.90
76211;DHT22;65003;49.518;11.280;2022-11-15T13:20:55;18.90;46.10
76211;DHT22;65003;49.518;11.280;2022-11-15T13:23:21;18.90;46.60
76211;DHT22;65003;49.518;11.280;2022-11-15T13:28:33;18.70;45.80
76211;DHT22;65003;49.518;11.280;2022-11-15T13:31:00;18.50;47.10
76211;DHT22;65003;49.518;11.280;2022-11-15T13:33:32;18.50;46.90
76211;DHT22;65003;49.518;11.280;2022-11-15T13:35:59;18.50;46.70
76211;DHT22;65003;49.518;11.280;2022-11-15T13:38:28;18.50;46.40
76211;DHT22;65003;49.518;11.280;2022-11-15T13:40:54;18.50;46.60
76211;DHT22;65003;49.518;11.280;2022-11-15T13:43:32;18.60;47.10
76211;DHT22;65003;49.518;11.280;2022-11-15T13:48:34;18.60;46.00
76211;DHT22;65003;49.518;11.280;2022-11-15T13:51:03;18.50;46.50
76211;DHT22;65003;49.518;11.280;2022-11-15T13:53:29;18.30;46.70
76211;DHT22;65003;49.518;11.280;2022-11-15T13:55:55;18.00;47.50
76211;DHT22;65003;49.518;11.280;2022-11-15T13:58:21;17.80;48.10
76211;DHT22;65003;49.518;11.280;2022-11-15T14:00:48;17.50;48.70
76211;DHT22;65003;49.518;11.280;2022-11-15T14:03:21;17.30;49.10
76211;DHT22;65003;49.518;11.280;2022-11-15T14:06:05;17.10;49.40
76211;DHT22;65003;49.518;11.280;2022-11-15T14:08:31;17.00;49.80
76211;DHT22;65003;49.518;11.280;2022-11-15T14:11:05;16.60;50.00
76211;DHT22;65003;49.518;11.280;2022-11-15T14:13:31;16.70;50.70
76211;DHT22;65003;49.518;11.280;2022-11-15T14:18:45;16.60;51.20
76211;DHT22;65003;49.518;11.280;2022-11-15T14:21:10;16.60;51.10
76211;DHT22;65003;49.518;11.280;2022-11-15T14:23:36;16.50;51.60
76211;DHT22;65003;49.518;11.280;2022-11-15T14:26:03;16.40;51.80
76211;DHT22;65003;49.518;11.280;2022-11-15T14:28:31;16.30;52.00
76211;DHT22;65003;49.518;11.280;2022-11-15T14:30:57;16.30;52.40
76211;DHT22;65003;49.518;11.280;2022-11-15T14:33:33;16.30;52.10
76211;DHT22;65003;49.518;11.280;2022-11-15T14:36:04;16.30;52.30
76211;DHT22;65003;49.518;11.280;2022-11-15T14:38:30;16.30;52.30
76211;DHT22;65003;49.518;11.280;2022-11-15T14:40:56;16.30;52.50
76211;DHT22;65003;49.518;11.280;2022-11-15T14:43:23;16.30;52.30
76211;DHT22;65003;49.518;11.280;2022-11-15T14:45:50;16.20;52.40
76211;DHT22;65003;49.518;11.280;2022-11-15T14:48:16;16.20;52.50
76211;DHT22;65003;49.518;11.280;2022-11-15T14:50:43;16.20;52.50
76211;DHT22;65003;49.518;11.280;2022-11-15T14:53:17;16.20;53.00
76211;DHT22;65003;49.518;11.280;2022-11-15T14:55:44;16.10;53.60
76211;DHT22;65003;49.518;11.280;2022-11-15T14:58:11;16.00;53.60
76211;DHT22;65003;49.518;11.280;2022-11-15T15:00:38;15.90;54.00
76211;DHT22;65003;49.518;11.280;2022-11-15T15:03:04;15.80;53.90
76211;DHT22;65003;49.518;11.280;2022-11-15T15:05:32;15.70;55.20
76211;DHT22;65003;49.518;11.280;2022-11-15T15:07:58;15.60;55.20
76211;DHT22;65003;49.518;11.280;2022-11-15T15:10:25;15.50;55.00
76211;DHT22;65003;49.518;11.280;2022-11-15T15:12:51;15.40;55.20
76211;DHT22;65003;49.518;11.280;2022-11-15T15:15:20;15.40;55.60
76211;DHT22;65003;49.518;11.280;2022-11-15T15:17:44;15.40;55.40
76211;DHT22;65003;49.518;11.280;2022-11-15T15:20:11;15.20;56.80
76211;DHT22;65003;49.518;11.280;2022-11-15T15:22:37;15.00;56.70
76211;DHT22;65003;49.518;11.280;2022-11-15T15:25:17;14.90;57.70
76211;DHT22;65003;49.518;11.280;2022-11-15T15:27:41;14.70;57.40
76211;DHT22;65003;49.518;11.280;2022-11-15T15:30:08;14.60;58.30
76211;DHT22;65003;49.518;11.280;2022-11-15T15:32:35;14.50;58.70
76211;DHT22;65003;49.518;11.280;2022-11-15T15:35:02;14.30;59.00
76211;DHT22;65003;49.518;11.280;2022-11-15T15:37:28;14.10;59.70
76211;DHT22;65003;49.518;11.280;2022-11-15T15:39:55;13.80;60.90
76211;DHT22;65003;49.518;11.280;2022-11-15T15:42:22;13.70;61.00
76211;DHT22;65003;49.518;11.280;2022-11-15T15:44:48;13.50;61.30
76211;DHT22;65003;49.518;11.280;2022-11-15T15:47:19;13.40;61.70
76211;DHT22;65003;49.518;11.280;2022-11-15T15:49:46;13.20;62.30
76211;DHT22;65003;49.518;11.280;2022-11-15T15:52:12;13.10;62.80
76211;DHT22;65003;49.518;11.280;2022-11-15T15:54:39;13.00;63.60
76211;DHT22;65003;49.518;11.280;2022-11-15T15:57:05;12.90;63.20
76211;DHT22;65003;49.518;11.280;2022-11-15T15:59:32;12.90;63.20
76211;DHT22;65003;49.518;11.280;2022-11-15T16:01:58;12.80;63.10